Аэропорт: Сыктывкар. Сыктывкар

ICAO: UUYY

METAR:
2018/07/16 20:00
UUYY 162000Z 03001MPS CAVOK 19/18 Q1013 R36/CLRD61 NOSIG RMK QFE751/1001
METAR:
2018/07/16 18:57
TAF UUYY 161700Z 1618/1718 VRB01MPS 6000 BKN011 BKN020CB 
      TEMPO 1618/1620 VRB10MPS 1000 TSRA BR BKN003 BKN015CB 
     FM162000 33003MPS 4000 -SHRA BR BKN011 BKN020CB 
      TEMPO 1620/1704 36003MPS 0300 FG BKN002 
     FM170400 03003G08MPS 9999 -SHRA BKN011 BKN020CB